sensor_id;sensor_type;location;lat;lon;timestamp;P1;durP1;ratioP1;P2;durP2;ratioP2
28766;SDS011;15921;52.034;20.650;2023-11-18T00:00:22;46.40;;;21.85;;
28766;SDS011;15921;52.034;20.650;2023-11-18T00:02:49;42.70;;;21.15;;
28766;SDS011;15921;52.034;20.650;2023-11-18T00:05:15;38.33;;;19.40;;
28766;SDS011;15921;52.034;20.650;2023-11-18T00:07:41;44.42;;;20.85;;
28766;SDS011;15921;52.034;20.650;2023-11-18T00:10:07;42.08;;;19.85;;
28766;SDS011;15921;52.034;20.650;2023-11-18T00:12:36;43.85;;;20.63;;
28766;SDS011;15921;52.034;20.650;2023-11-18T00:15:04;38.15;;;18.05;;
28766;SDS011;15921;52.034;20.650;2023-11-18T00:17:33;41.08;;;18.95;;
28766;SDS011;15921;52.034;20.650;2023-11-18T00:19:59;40.45;;;18.90;;
28766;SDS011;15921;52.034;20.650;2023-11-18T00:22:25;41.05;;;19.60;;
28766;SDS011;15921;52.034;20.650;2023-11-18T00:24:52;33.90;;;17.92;;
28766;SDS011;15921;52.034;20.650;2023-11-18T00:27:20;40.45;;;20.10;;
28766;SDS011;15921;52.034;20.650;2023-11-18T00:29:47;42.97;;;21.88;;
28766;SDS011;15921;52.034;20.650;2023-11-18T00:32:13;41.60;;;20.33;;
28766;SDS011;15921;52.034;20.650;2023-11-18T00:34:39;36.08;;;18.00;;
28766;SDS011;15921;52.034;20.650;2023-11-18T00:37:05;35.72;;;17.52;;
28766;SDS011;15921;52.034;20.650;2023-11-18T00:39:30;37.88;;;18.70;;
28766;SDS011;15921;52.034;20.650;2023-11-18T00:41:56;39.85;;;20.30;;
28766;SDS011;15921;52.034;20.650;2023-11-18T00:44:22;35.40;;;18.73;;
28766;SDS011;15921;52.034;20.650;2023-11-18T00:46:47;31.13;;;17.17;;
28766;SDS011;15921;52.034;20.650;2023-11-18T00:49:13;35.58;;;17.13;;
28766;SDS011;15921;52.034;20.650;2023-11-18T00:51:39;30.95;;;16.75;;
28766;SDS011;15921;52.034;20.650;2023-11-18T00:54:06;34.72;;;18.20;;
28766;SDS011;15921;52.034;20.650;2023-11-18T00:56:32;32.40;;;16.35;;
28766;SDS011;15921;52.034;20.650;2023-11-18T00:58:58;32.80;;;15.30;;
28766;SDS011;15921;52.034;20.650;2023-11-18T01:01:26;38.35;;;17.45;;
28766;SDS011;15921;52.034;20.650;2023-11-18T01:03:52;37.83;;;18.73;;
28766;SDS011;15921;52.034;20.650;2023-11-18T01:06:19;37.97;;;16.80;;
28766;SDS011;15921;52.034;20.650;2023-11-18T01:08:45;34.08;;;17.63;;
28766;SDS011;15921;52.034;20.650;2023-11-18T01:11:11;29.95;;;15.55;;
28766;SDS011;15921;52.034;20.650;2023-11-18T01:13:43;30.40;;;16.10;;
28766;SDS011;15921;52.034;20.650;2023-11-18T01:16:12;35.33;;;17.63;;
28766;SDS011;15921;52.034;20.650;2023-11-18T01:18:39;30.02;;;15.85;;
28766;SDS011;15921;52.034;20.650;2023-11-18T01:21:05;32.17;;;17.33;;
28766;SDS011;15921;52.034;20.650;2023-11-18T01:23:34;29.00;;;15.10;;
28766;SDS011;15921;52.034;20.650;2023-11-18T01:26:00;35.08;;;16.75;;
28766;SDS011;15921;52.034;20.650;2023-11-18T01:28:30;28.88;;;15.93;;
28766;SDS011;15921;52.034;20.650;2023-11-18T01:31:02;28.53;;;13.63;;
28766;SDS011;15921;52.034;20.650;2023-11-18T01:33:29;31.90;;;16.52;;
28766;SDS011;15921;52.034;20.650;2023-11-18T01:35:55;35.05;;;16.30;;
28766;SDS011;15921;52.034;20.650;2023-11-18T01:38:20;31.52;;;15.68;;
28766;SDS011;15921;52.034;20.650;2023-11-18T01:40:46;32.22;;;15.77;;
28766;SDS011;15921;52.034;20.650;2023-11-18T01:43:12;28.27;;;14.98;;
28766;SDS011;15921;52.034;20.650;2023-11-18T01:45:40;31.85;;;15.77;;
28766;SDS011;15921;52.034;20.650;2023-11-18T01:48:06;32.25;;;15.65;;
28766;SDS011;15921;52.034;20.650;2023-11-18T01:50:35;30.30;;;15.93;;
28766;SDS011;15921;52.034;20.650;2023-11-18T01:53:02;31.83;;;16.30;;
28766;SDS011;15921;52.034;20.650;2023-11-18T01:55:29;29.73;;;16.63;;
28766;SDS011;15921;52.034;20.650;2023-11-18T01:57:54;30.45;;;15.70;;
28766;SDS011;15921;52.034;20.650;2023-11-18T02:00:22;31.42;;;15.80;;
28766;SDS011;15921;52.034;20.650;2023-11-18T02:02:48;33.08;;;16.30;;
28766;SDS011;15921;52.034;20.650;2023-11-18T02:05:14;31.73;;;14.82;;
28766;SDS011;15921;52.034;20.650;2023-11-18T02:07:42;33.42;;;15.15;;
28766;SDS011;15921;52.034;20.650;2023-11-18T02:10:08;28.60;;;15.23;;
28766;SDS011;15921;52.034;20.650;2023-11-18T02:12:46;34.80;;;16.25;;
28766;SDS011;15921;52.034;20.650;2023-11-18T02:15:23;29.05;;;14.35;;
28766;SDS011;15921;52.034;20.650;2023-11-18T02:17:51;27.67;;;14.20;;
28766;SDS011;15921;52.034;20.650;2023-11-18T02:20:19;33.58;;;15.07;;
28766;SDS011;15921;52.034;20.650;2023-11-18T02:22:46;27.58;;;14.35;;
28766;SDS011;15921;52.034;20.650;2023-11-18T02:25:15;30.35;;;15.23;;
28766;SDS011;15921;52.034;20.650;2023-11-18T02:27:43;24.83;;;13.57;;
28766;SDS011;15921;52.034;20.650;2023-11-18T02:30:09;31.70;;;14.98;;
28766;SDS011;15921;52.034;20.650;2023-11-18T02:38:17;28.70;;;14.95;;
28766;SDS011;15921;52.034;20.650;2023-11-18T02:40:48;26.95;;;14.20;;
28766;SDS011;15921;52.034;20.650;2023-11-18T02:43:18;27.42;;;14.57;;
28766;SDS011;15921;52.034;20.650;2023-11-18T02:45:44;28.92;;;15.07;;
28766;SDS011;15921;52.034;20.650;2023-11-18T02:48:11;28.20;;;14.07;;
28766;SDS011;15921;52.034;20.650;2023-11-18T02:50:37;25.92;;;12.80;;
28766;SDS011;15921;52.034;20.650;2023-11-18T02:53:03;26.50;;;13.63;;
28766;SDS011;15921;52.034;20.650;2023-11-18T02:55:29;31.83;;;15.63;;
28766;SDS011;15921;52.034;20.650;2023-11-18T02:57:54;27.33;;;14.35;;
28766;SDS011;15921;52.034;20.650;2023-11-18T03:00:22;27.50;;;13.73;;
28766;SDS011;15921;52.034;20.650;2023-11-18T03:02:48;25.98;;;12.85;;
28766;SDS011;15921;52.034;20.650;2023-11-18T03:05:16;30.63;;;13.93;;
28766;SDS011;15921;52.034;20.650;2023-11-18T03:07:45;29.50;;;14.40;;
28766;SDS011;15921;52.034;20.650;2023-11-18T03:10:20;28.05;;;13.65;;
28766;SDS011;15921;52.034;20.650;2023-11-18T03:12:49;29.60;;;14.10;;
28766;SDS011;15921;52.034;20.650;2023-11-18T03:15:17;27.55;;;14.18;;
28766;SDS011;15921;52.034;20.650;2023-11-18T03:17:47;29.73;;;14.65;;
28766;SDS011;15921;52.034;20.650;2023-11-18T03:20:16;28.65;;;14.48;;
28766;SDS011;15921;52.034;20.650;2023-11-18T03:22:46;31.10;;;15.00;;
28766;SDS011;15921;52.034;20.650;2023-11-18T03:25:12;33.53;;;15.05;;
28766;SDS011;15921;52.034;20.650;2023-11-18T03:27:39;31.70;;;15.85;;
28766;SDS011;15921;52.034;20.650;2023-11-18T03:30:05;31.92;;;16.40;;
28766;SDS011;15921;52.034;20.650;2023-11-18T03:32:33;29.83;;;15.48;;
28766;SDS011;15921;52.034;20.650;2023-11-18T03:35:03;31.85;;;16.17;;
28766;SDS011;15921;52.034;20.650;2023-11-18T03:37:33;34.92;;;16.50;;
28766;SDS011;15921;52.034;20.650;2023-11-18T03:40:09;29.92;;;14.65;;
28766;SDS011;15921;52.034;20.650;2023-11-18T03:42:37;32.38;;;15.90;;
28766;SDS011;15921;52.034;20.650;2023-11-18T03:45:03;34.20;;;15.38;;
28766;SDS011;15921;52.034;20.650;2023-11-18T03:47:30;31.58;;;15.27;;
28766;SDS011;15921;52.034;20.650;2023-11-18T03:49:56;30.60;;;14.73;;
28766;SDS011;15921;52.034;20.650;2023-11-18T03:52:22;32.95;;;15.60;;
28766;SDS011;15921;52.034;20.650;2023-11-18T03:54:48;28.25;;;14.15;;
28766;SDS011;15921;52.034;20.650;2023-11-18T03:57:14;27.15;;;14.27;;
28766;SDS011;15921;52.034;20.650;2023-11-18T03:59:39;30.30;;;14.77;;
28766;SDS011;15921;52.034;20.650;2023-11-18T04:02:08;29.60;;;14.77;;
28766;SDS011;15921;52.034;20.650;2023-11-18T04:04:36;24.35;;;13.52;;
28766;SDS011;15921;52.034;20.650;2023-11-18T04:07:02;26.63;;;14.43;;
28766;SDS011;15921;52.034;20.650;2023-11-18T04:09:29;28.23;;;14.20;;
28766;SDS011;15921;52.034;20.650;2023-11-18T04:11:55;29.17;;;14.68;;
28766;SDS011;15921;52.034;20.650;2023-11-18T04:14:20;29.95;;;14.45;;
28766;SDS011;15921;52.034;20.650;2023-11-18T04:16:46;27.50;;;14.50;;
28766;SDS011;15921;52.034;20.650;2023-11-18T04:19:13;32.05;;;13.50;;
28766;SDS011;15921;52.034;20.650;2023-11-18T04:21:39;25.00;;;13.65;;
28766;SDS011;15921;52.034;20.650;2023-11-18T04:24:05;30.33;;;14.38;;
28766;SDS011;15921;52.034;20.650;2023-11-18T04:26:31;26.33;;;13.45;;
28766;SDS011;15921;52.034;20.650;2023-11-18T04:28:57;24.73;;;12.88;;
28766;SDS011;15921;52.034;20.650;2023-11-18T04:31:23;28.65;;;14.63;;
28766;SDS011;15921;52.034;20.650;2023-11-18T04:33:49;27.48;;;14.05;;
28766;SDS011;15921;52.034;20.650;2023-11-18T04:36:15;30.40;;;14.10;;
28766;SDS011;15921;52.034;20.650;2023-11-18T04:38:41;26.38;;;13.23;;
28766;SDS011;15921;52.034;20.650;2023-11-18T04:41:08;25.33;;;13.50;;
28766;SDS011;15921;52.034;20.650;2023-11-18T04:43:34;25.15;;;12.45;;
28766;SDS011;15921;52.034;20.650;2023-11-18T04:46:00;24.20;;;12.40;;
28766;SDS011;15921;52.034;20.650;2023-11-18T04:48:26;24.90;;;12.38;;
28766;SDS011;15921;52.034;20.650;2023-11-18T04:50:51;24.23;;;12.45;;
28766;SDS011;15921;52.034;20.650;2023-11-18T04:53:17;24.25;;;12.52;;
28766;SDS011;15921;52.034;20.650;2023-11-18T04:55:43;30.13;;;12.98;;
28766;SDS011;15921;52.034;20.650;2023-11-18T04:58:09;24.80;;;12.80;;
28766;SDS011;15921;52.034;20.650;2023-11-18T05:00:38;22.40;;;11.68;;
28766;SDS011;15921;52.034;20.650;2023-11-18T05:03:05;20.90;;;10.85;;
28766;SDS011;15921;52.034;20.650;2023-11-18T05:05:34;22.15;;;11.40;;
28766;SDS011;15921;52.034;20.650;2023-11-18T05:08:04;22.25;;;11.70;;
28766;SDS011;15921;52.034;20.650;2023-11-18T05:10:32;22.13;;;11.65;;
28766;SDS011;15921;52.034;20.650;2023-11-18T05:12:58;21.73;;;11.25;;
28766;SDS011;15921;52.034;20.650;2023-11-18T05:15:23;18.80;;;10.65;;
28766;SDS011;15921;52.034;20.650;2023-11-18T05:17:54;24.63;;;11.02;;
28766;SDS011;15921;52.034;20.650;2023-11-18T05:20:20;20.95;;;10.63;;
28766;SDS011;15921;52.034;20.650;2023-11-18T05:22:46;20.23;;;10.52;;
28766;SDS011;15921;52.034;20.650;2023-11-18T05:25:12;20.00;;;10.35;;
28766;SDS011;15921;52.034;20.650;2023-11-18T05:27:38;24.50;;;11.52;;
28766;SDS011;15921;52.034;20.650;2023-11-18T05:30:08;18.58;;;10.13;;
28766;SDS011;15921;52.034;20.650;2023-11-18T05:32:35;20.58;;;9.90;;
28766;SDS011;15921;52.034;20.650;2023-11-18T05:35:01;18.85;;;10.23;;
28766;SDS011;15921;52.034;20.650;2023-11-18T05:37:29;21.33;;;10.00;;
28766;SDS011;15921;52.034;20.650;2023-11-18T05:40:00;19.13;;;10.35;;
28766;SDS011;15921;52.034;20.650;2023-11-18T05:42:31;18.52;;;10.27;;
28766;SDS011;15921;52.034;20.650;2023-11-18T05:44:59;20.83;;;11.15;;
28766;SDS011;15921;52.034;20.650;2023-11-18T05:47:26;20.45;;;10.23;;
28766;SDS011;15921;52.034;20.650;2023-11-18T05:49:52;19.58;;;9.07;;
28766;SDS011;15921;52.034;20.650;2023-11-18T05:52:19;21.00;;;10.38;;
28766;SDS011;15921;52.034;20.650;2023-11-18T05:54:48;19.23;;;10.05;;
28766;SDS011;15921;52.034;20.650;2023-11-18T05:57:16;19.60;;;10.68;;
28766;SDS011;15921;52.034;20.650;2023-11-18T05:59:43;20.55;;;10.80;;
28766;SDS011;15921;52.034;20.650;2023-11-18T06:02:08;20.92;;;10.90;;
28766;SDS011;15921;52.034;20.650;2023-11-18T06:04:42;20.95;;;11.07;;
28766;SDS011;15921;52.034;20.650;2023-11-18T06:07:08;19.83;;;10.00;;
28766;SDS011;15921;52.034;20.650;2023-11-18T06:09:34;20.08;;;11.70;;
28766;SDS011;15921;52.034;20.650;2023-11-18T06:11:59;23.83;;;11.35;;
28766;SDS011;15921;52.034;20.650;2023-11-18T06:14:25;20.90;;;10.93;;
28766;SDS011;15921;52.034;20.650;2023-11-18T06:16:51;19.33;;;10.68;;
28766;SDS011;15921;52.034;20.650;2023-11-18T06:19:17;21.35;;;11.38;;
28766;SDS011;15921;52.034;20.650;2023-11-18T06:21:43;18.45;;;11.05;;
28766;SDS011;15921;52.034;20.650;2023-11-18T06:24:09;21.15;;;10.73;;
28766;SDS011;15921;52.034;20.650;2023-11-18T06:26:36;18.90;;;11.07;;
28766;SDS011;15921;52.034;20.650;2023-11-18T06:29:02;20.55;;;10.45;;
28766;SDS011;15921;52.034;20.650;2023-11-18T06:31:29;17.98;;;10.60;;
28766;SDS011;15921;52.034;20.650;2023-11-18T06:33:55;17.27;;;10.23;;
28766;SDS011;15921;52.034;20.650;2023-11-18T06:36:21;17.13;;;9.23;;
28766;SDS011;15921;52.034;20.650;2023-11-18T06:38:48;20.88;;;11.18;;
28766;SDS011;15921;52.034;20.650;2023-11-18T06:41:21;18.25;;;10.85;;
28766;SDS011;15921;52.034;20.650;2023-11-18T06:44:00;18.80;;;9.80;;
28766;SDS011;15921;52.034;20.650;2023-11-18T06:46:33;16.45;;;9.23;;
28766;SDS011;15921;52.034;20.650;2023-11-18T06:49:02;19.90;;;10.38;;
28766;SDS011;15921;52.034;20.650;2023-11-18T06:51:29;19.08;;;10.20;;
28766;SDS011;15921;52.034;20.650;2023-11-18T06:53:57;19.60;;;9.93;;
28766;SDS011;15921;52.034;20.650;2023-11-18T06:56:26;16.48;;;9.52;;
28766;SDS011;15921;52.034;20.650;2023-11-18T06:58:52;17.65;;;9.65;;
28766;SDS011;15921;52.034;20.650;2023-11-18T07:01:18;19.55;;;10.05;;
28766;SDS011;15921;52.034;20.650;2023-11-18T07:03:45;19.45;;;9.27;;
28766;SDS011;15921;52.034;20.650;2023-11-18T07:06:16;17.38;;;9.38;;
28766;SDS011;15921;52.034;20.650;2023-11-18T07:08:50;19.48;;;9.43;;
28766;SDS011;15921;52.034;20.650;2023-11-18T07:11:16;18.60;;;10.27;;
28766;SDS011;15921;52.034;20.650;2023-11-18T07:13:43;17.80;;;9.75;;
28766;SDS011;15921;52.034;20.650;2023-11-18T07:16:09;20.15;;;9.38;;
28766;SDS011;15921;52.034;20.650;2023-11-18T07:18:35;18.00;;;7.93;;
28766;SDS011;15921;52.034;20.650;2023-11-18T07:21:03;16.02;;;8.18;;
28766;SDS011;15921;52.034;20.650;2023-11-18T07:23:30;15.25;;;9.00;;
28766;SDS011;15921;52.034;20.650;2023-11-18T07:25:59;15.32;;;8.55;;
28766;SDS011;15921;52.034;20.650;2023-11-18T07:28:25;13.75;;;7.80;;
28766;SDS011;15921;52.034;20.650;2023-11-18T07:30:52;16.45;;;8.43;;
28766;SDS011;15921;52.034;20.650;2023-11-18T07:33:19;16.08;;;7.85;;
28766;SDS011;15921;52.034;20.650;2023-11-18T07:35:45;16.30;;;8.50;;
28766;SDS011;15921;52.034;20.650;2023-11-18T07:38:13;17.58;;;8.88;;
28766;SDS011;15921;52.034;20.650;2023-11-18T07:40:39;14.90;;;7.93;;
28766;SDS011;15921;52.034;20.650;2023-11-18T07:43:17;14.88;;;8.07;;
28766;SDS011;15921;52.034;20.650;2023-11-18T07:45:46;14.23;;;7.93;;
28766;SDS011;15921;52.034;20.650;2023-11-18T07:48:15;16.13;;;7.57;;
28766;SDS011;15921;52.034;20.650;2023-11-18T07:50:42;14.60;;;7.75;;
28766;SDS011;15921;52.034;20.650;2023-11-18T07:53:12;13.65;;;7.72;;
28766;SDS011;15921;52.034;20.650;2023-11-18T07:55:38;14.20;;;7.70;;
28766;SDS011;15921;52.034;20.650;2023-11-18T07:58:04;13.13;;;7.70;;
28766;SDS011;15921;52.034;20.650;2023-11-18T08:00:42;15.88;;;8.43;;
28766;SDS011;15921;52.034;20.650;2023-11-18T08:03:10;16.00;;;7.75;;
28766;SDS011;15921;52.034;20.650;2023-11-18T08:05:42;13.50;;;7.68;;
28766;SDS011;15921;52.034;20.650;2023-11-18T08:08:09;15.02;;;8.65;;
28766;SDS011;15921;52.034;20.650;2023-11-18T08:10:36;13.35;;;7.65;;
28766;SDS011;15921;52.034;20.650;2023-11-18T08:13:06;14.23;;;8.13;;
28766;SDS011;15921;52.034;20.650;2023-11-18T08:15:33;13.57;;;7.78;;
28766;SDS011;15921;52.034;20.650;2023-11-18T08:18:00;14.07;;;8.00;;
28766;SDS011;15921;52.034;20.650;2023-11-18T08:20:26;13.23;;;8.05;;
28766;SDS011;15921;52.034;20.650;2023-11-18T08:22:52;18.10;;;8.07;;
28766;SDS011;15921;52.034;20.650;2023-11-18T08:25:18;12.95;;;7.57;;
28766;SDS011;15921;52.034;20.650;2023-11-18T08:27:44;13.77;;;8.23;;
28766;SDS011;15921;52.034;20.650;2023-11-18T08:30:12;13.77;;;7.45;;
28766;SDS011;15921;52.034;20.650;2023-11-18T08:32:40;19.95;;;11.43;;
28766;SDS011;15921;52.034;20.650;2023-11-18T08:35:09;20.02;;;12.38;;
28766;SDS011;15921;52.034;20.650;2023-11-18T08:37:39;14.73;;;9.15;;
28766;SDS011;15921;52.034;20.650;2023-11-18T08:40:07;12.68;;;8.75;;
28766;SDS011;15921;52.034;20.650;2023-11-18T08:45:12;25.13;;;14.10;;
28766;SDS011;15921;52.034;20.650;2023-11-18T08:47:45;15.48;;;8.98;;
28766;SDS011;15921;52.034;20.650;2023-11-18T08:50:15;18.15;;;10.82;;
28766;SDS011;15921;52.034;20.650;2023-11-18T08:52:45;17.42;;;10.82;;
28766;SDS011;15921;52.034;20.650;2023-11-18T08:57:46;15.60;;;8.82;;
28766;SDS011;15921;52.034;20.650;2023-11-18T09:00:29;18.80;;;10.98;;
28766;SDS011;15921;52.034;20.650;2023-11-18T09:03:14;16.23;;;9.52;;
28766;SDS011;15921;52.034;20.650;2023-11-18T09:05:57;14.85;;;9.40;;
28766;SDS011;15921;52.034;20.650;2023-11-18T09:08:28;20.33;;;9.68;;
28766;SDS011;15921;52.034;20.650;2023-11-18T09:11:00;20.13;;;10.32;;
28766;SDS011;15921;52.034;20.650;2023-11-18T09:13:27;21.08;;;10.65;;
28766;SDS011;15921;52.034;20.650;2023-11-18T09:15:54;19.08;;;9.63;;
28766;SDS011;15921;52.034;20.650;2023-11-18T09:18:25;17.13;;;9.80;;
28766;SDS011;15921;52.034;20.650;2023-11-18T09:20:52;17.15;;;10.43;;
28766;SDS011;15921;52.034;20.650;2023-11-18T09:23:20;16.92;;;9.18;;
28766;SDS011;15921;52.034;20.650;2023-11-18T09:25:48;18.80;;;10.30;;
28766;SDS011;15921;52.034;20.650;2023-11-18T09:28:15;18.23;;;10.02;;
28766;SDS011;15921;52.034;20.650;2023-11-18T09:30:45;18.88;;;10.10;;
28766;SDS011;15921;52.034;20.650;2023-11-18T09:33:23;17.17;;;9.60;;
28766;SDS011;15921;52.034;20.650;2023-11-18T09:38:34;19.00;;;10.05;;
28766;SDS011;15921;52.034;20.650;2023-11-18T09:41:02;19.88;;;10.57;;
28766;SDS011;15921;52.034;20.650;2023-11-18T09:43:32;19.60;;;10.27;;
28766;SDS011;15921;52.034;20.650;2023-11-18T09:46:07;20.27;;;10.73;;
28766;SDS011;15921;52.034;20.650;2023-11-18T09:48:43;19.40;;;10.02;;
28766;SDS011;15921;52.034;20.650;2023-11-18T09:51:27;17.85;;;9.55;;
28766;SDS011;15921;52.034;20.650;2023-11-18T09:53:55;21.10;;;10.95;;
28766;SDS011;15921;52.034;20.650;2023-11-18T09:56:39;16.80;;;9.52;;
28766;SDS011;15921;52.034;20.650;2023-11-18T10:01:41;18.10;;;10.13;;
28766;SDS011;15921;52.034;20.650;2023-11-18T10:04:12;17.13;;;10.10;;
28766;SDS011;15921;52.034;20.650;2023-11-18T10:06:42;21.05;;;10.98;;
28766;SDS011;15921;52.034;20.650;2023-11-18T10:09:10;23.58;;;11.05;;
28766;SDS011;15921;52.034;20.650;2023-11-18T10:14:11;19.98;;;10.25;;
28766;SDS011;15921;52.034;20.650;2023-11-18T10:16:43;20.73;;;11.55;;
28766;SDS011;15921;52.034;20.650;2023-11-18T10:19:12;16.10;;;9.68;;
28766;SDS011;15921;52.034;20.650;2023-11-18T10:21:39;20.35;;;10.27;;
28766;SDS011;15921;52.034;20.650;2023-11-18T10:24:06;14.77;;;8.88;;
28766;SDS011;15921;52.034;20.650;2023-11-18T10:26:44;17.00;;;9.73;;
28766;SDS011;15921;52.034;20.650;2023-11-18T10:29:19;13.77;;;8.73;;
28766;SDS011;15921;52.034;20.650;2023-11-18T10:31:45;18.60;;;9.90;;
28766;SDS011;15921;52.034;20.650;2023-11-18T10:34:14;17.27;;;8.90;;
28766;SDS011;15921;52.034;20.650;2023-11-18T10:39:28;18.05;;;9.18;;
28766;SDS011;15921;52.034;20.650;2023-11-18T10:44:26;15.02;;;9.45;;
28766;SDS011;15921;52.034;20.650;2023-11-18T10:46:52;19.20;;;10.27;;
28766;SDS011;15921;52.034;20.650;2023-11-18T10:49:22;15.27;;;9.32;;
28766;SDS011;15921;52.034;20.650;2023-11-18T10:51:47;20.00;;;10.30;;
28766;SDS011;15921;52.034;20.650;2023-11-18T10:54:16;18.30;;;9.93;;
28766;SDS011;15921;52.034;20.650;2023-11-18T10:56:48;15.02;;;9.20;;
28766;SDS011;15921;52.034;20.650;2023-11-18T10:59:15;17.65;;;9.95;;
28766;SDS011;15921;52.034;20.650;2023-11-18T11:01:42;17.90;;;10.15;;
28766;SDS011;15921;52.034;20.650;2023-11-18T11:04:11;17.60;;;10.38;;
28766;SDS011;15921;52.034;20.650;2023-11-18T11:06:41;20.23;;;10.27;;
28766;SDS011;15921;52.034;20.650;2023-11-18T11:09:07;21.45;;;10.38;;
28766;SDS011;15921;52.034;20.650;2023-11-18T11:11:52;16.90;;;10.25;;
28766;SDS011;15921;52.034;20.650;2023-11-18T11:14:32;22.63;;;10.95;;
28766;SDS011;15921;52.034;20.650;2023-11-18T11:17:07;23.15;;;10.95;;
28766;SDS011;15921;52.034;20.650;2023-11-18T11:19:50;20.48;;;11.00;;
28766;SDS011;15921;52.034;20.650;2023-11-18T11:22:25;18.83;;;11.30;;
28766;SDS011;15921;52.034;20.650;2023-11-18T11:25:07;21.83;;;11.15;;
28766;SDS011;15921;52.034;20.650;2023-11-18T11:27:50;19.50;;;10.68;;
28766;SDS011;15921;52.034;20.650;2023-11-18T11:30:33;18.35;;;10.57;;
28766;SDS011;15921;52.034;20.650;2023-11-18T11:35:56;20.30;;;10.98;;
28766;SDS011;15921;52.034;20.650;2023-11-18T11:38:24;17.63;;;10.23;;
28766;SDS011;15921;52.034;20.650;2023-11-18T11:40:52;22.65;;;11.63;;
28766;SDS011;15921;52.034;20.650;2023-11-18T11:43:20;23.10;;;12.02;;
28766;SDS011;15921;52.034;20.650;2023-11-18T11:45:53;23.73;;;12.07;;
28766;SDS011;15921;52.034;20.650;2023-11-18T11:48:21;24.73;;;12.48;;
28766;SDS011;15921;52.034;20.650;2023-11-18T11:53:49;28.58;;;15.77;;
28766;SDS011;15921;52.034;20.650;2023-11-18T11:56:44;57.20;;;32.38;;
28766;SDS011;15921;52.034;20.650;2023-11-18T11:59:17;24.80;;;12.88;;
28766;SDS011;15921;52.034;20.650;2023-11-18T12:02:01;22.95;;;12.43;;
28766;SDS011;15921;52.034;20.650;2023-11-18T12:04:32;25.77;;;13.98;;
28766;SDS011;15921;52.034;20.650;2023-11-18T12:07:03;25.23;;;12.35;;
28766;SDS011;15921;52.034;20.650;2023-11-18T12:09:34;29.08;;;13.90;;
28766;SDS011;15921;52.034;20.650;2023-11-18T12:12:14;25.60;;;13.73;;
28766;SDS011;15921;52.034;20.650;2023-11-18T12:15:05;29.02;;;16.05;;
28766;SDS011;15921;52.034;20.650;2023-11-18T12:20:40;22.38;;;11.93;;
28766;SDS011;15921;52.034;20.650;2023-11-18T12:23:07;22.42;;;11.68;;
28766;SDS011;15921;52.034;20.650;2023-11-18T12:25:39;23.90;;;12.23;;
28766;SDS011;15921;52.034;20.650;2023-11-18T12:28:09;21.63;;;12.02;;
28766;SDS011;15921;52.034;20.650;2023-11-18T12:30:39;21.42;;;12.52;;
28766;SDS011;15921;52.034;20.650;2023-11-18T12:33:13;20.95;;;12.05;;
28766;SDS011;15921;52.034;20.650;2023-11-18T12:41:38;21.50;;;12.60;;
28766;SDS011;15921;52.034;20.650;2023-11-18T12:47:00;25.85;;;12.90;;
28766;SDS011;15921;52.034;20.650;2023-11-18T12:49:46;24.17;;;12.77;;
28766;SDS011;15921;52.034;20.650;2023-11-18T12:52:20;25.27;;;12.98;;
28766;SDS011;15921;52.034;20.650;2023-11-18T12:54:47;21.60;;;11.48;;
28766;SDS011;15921;52.034;20.650;2023-11-18T12:57:19;28.35;;;14.85;;
28766;SDS011;15921;52.034;20.650;2023-11-18T12:59:48;29.30;;;14.75;;
28766;SDS011;15921;52.034;20.650;2023-11-18T13:02:15;28.50;;;15.23;;
28766;SDS011;15921;52.034;20.650;2023-11-18T13:04:45;27.63;;;14.63;;
28766;SDS011;15921;52.034;20.650;2023-11-18T13:07:15;28.73;;;14.02;;
28766;SDS011;15921;52.034;20.650;2023-11-18T13:09:46;26.73;;;13.23;;
28766;SDS011;15921;52.034;20.650;2023-11-18T13:12:15;23.65;;;12.07;;
28766;SDS011;15921;52.034;20.650;2023-11-18T13:14:44;26.58;;;13.27;;
28766;SDS011;15921;52.034;20.650;2023-11-18T13:17:15;21.58;;;11.77;;
28766;SDS011;15921;52.034;20.650;2023-11-18T13:19:41;22.02;;;12.20;;
28766;SDS011;15921;52.034;20.650;2023-11-18T13:22:09;20.92;;;11.50;;
28766;SDS011;15921;52.034;20.650;2023-11-18T13:24:38;33.85;;;17.52;;
28766;SDS011;15921;52.034;20.650;2023-11-18T13:27:05;29.10;;;13.63;;
28766;SDS011;15921;52.034;20.650;2023-11-18T13:29:34;27.92;;;12.32;;
28766;SDS011;15921;52.034;20.650;2023-11-18T13:32:01;25.10;;;13.23;;
28766;SDS011;15921;52.034;20.650;2023-11-18T13:34:30;26.02;;;13.15;;
28766;SDS011;15921;52.034;20.650;2023-11-18T13:37:07;22.33;;;11.82;;
28766;SDS011;15921;52.034;20.650;2023-11-18T13:39:34;32.47;;;14.65;;
28766;SDS011;15921;52.034;20.650;2023-11-18T13:42:18;24.00;;;11.57;;
28766;SDS011;15921;52.034;20.650;2023-11-18T13:44:45;27.63;;;11.88;;
28766;SDS011;15921;52.034;20.650;2023-11-18T13:47:13;21.10;;;11.95;;
28766;SDS011;15921;52.034;20.650;2023-11-18T13:49:42;27.63;;;12.10;;
28766;SDS011;15921;52.034;20.650;2023-11-18T13:52:09;23.27;;;11.70;;
28766;SDS011;15921;52.034;20.650;2023-11-18T13:54:39;27.23;;;14.20;;
28766;SDS011;15921;52.034;20.650;2023-11-18T13:57:08;29.60;;;14.48;;
28766;SDS011;15921;52.034;20.650;2023-11-18T13:59:34;28.02;;;13.20;;
28766;SDS011;15921;52.034;20.650;2023-11-18T14:02:00;28.05;;;13.70;;
28766;SDS011;15921;52.034;20.650;2023-11-18T14:04:29;27.35;;;13.45;;
28766;SDS011;15921;52.034;20.650;2023-11-18T14:06:58;25.75;;;13.40;;
28766;SDS011;15921;52.034;20.650;2023-11-18T14:09:25;27.52;;;13.15;;
28766;SDS011;15921;52.034;20.650;2023-11-18T14:11:52;26.33;;;13.80;;
28766;SDS011;15921;52.034;20.650;2023-11-18T14:14:21;31.00;;;14.25;;
28766;SDS011;15921;52.034;20.650;2023-11-18T14:16:50;38.90;;;17.42;;
28766;SDS011;15921;52.034;20.650;2023-11-18T14:19:18;32.30;;;14.55;;
28766;SDS011;15921;52.034;20.650;2023-11-18T14:21:44;30.90;;;14.93;;
28766;SDS011;15921;52.034;20.650;2023-11-18T14:24:10;27.40;;;13.52;;
28766;SDS011;15921;52.034;20.650;2023-11-18T14:26:39;30.67;;;14.32;;
28766;SDS011;15921;52.034;20.650;2023-11-18T14:29:06;39.35;;;21.42;;
28766;SDS011;15921;52.034;20.650;2023-11-18T14:31:35;29.80;;;15.32;;
28766;SDS011;15921;52.034;20.650;2023-11-18T14:34:01;31.23;;;14.43;;
28766;SDS011;15921;52.034;20.650;2023-11-18T14:36:27;36.42;;;16.25;;
28766;SDS011;15921;52.034;20.650;2023-11-18T14:38:53;33.33;;;15.23;;
28766;SDS011;15921;52.034;20.650;2023-11-18T14:41:19;34.75;;;17.70;;
28766;SDS011;15921;52.034;20.650;2023-11-18T14:43:49;34.60;;;16.35;;
28766;SDS011;15921;52.034;20.650;2023-11-18T14:46:15;34.75;;;16.98;;
28766;SDS011;15921;52.034;20.650;2023-11-18T14:48:41;37.47;;;15.93;;
28766;SDS011;15921;52.034;20.650;2023-11-18T14:51:07;39.05;;;16.85;;
28766;SDS011;15921;52.034;20.650;2023-11-18T14:53:33;76.82;;;37.78;;
28766;SDS011;15921;52.034;20.650;2023-11-18T14:55:59;40.80;;;17.25;;
28766;SDS011;15921;52.034;20.650;2023-11-18T14:58:26;46.65;;;21.02;;
28766;SDS011;15921;52.034;20.650;2023-11-18T15:00:51;38.65;;;18.27;;